sensor_id;sensor_type;location;lat;lon;timestamp;P1;durP1;ratioP1;P2;durP2;ratioP2
13753;SDS011;6948;51.216;6.778;2023-04-27T00:00:35;8.23;;;5.13;;
13753;SDS011;6948;51.216;6.778;2023-04-27T00:03:01;9.43;;;5.20;;
13753;SDS011;6948;51.216;6.778;2023-04-27T00:05:32;10.87;;;5.40;;
13753;SDS011;6948;51.216;6.778;2023-04-27T00:07:59;8.77;;;5.47;;
13753;SDS011;6948;51.216;6.778;2023-04-27T00:10:25;8.10;;;5.83;;
13753;SDS011;6948;51.216;6.778;2023-04-27T00:12:51;9.20;;;5.43;;
13753;SDS011;6948;51.216;6.778;2023-04-27T00:15:17;9.37;;;5.30;;
13753;SDS011;6948;51.216;6.778;2023-04-27T00:17:42;8.33;;;5.40;;
13753;SDS011;6948;51.216;6.778;2023-04-27T00:20:08;11.30;;;5.50;;
13753;SDS011;6948;51.216;6.778;2023-04-27T00:22:36;8.73;;;5.73;;
13753;SDS011;6948;51.216;6.778;2023-04-27T00:25:03;8.07;;;5.60;;
13753;SDS011;6948;51.216;6.778;2023-04-27T00:27:29;8.57;;;5.77;;
13753;SDS011;6948;51.216;6.778;2023-04-27T00:29:55;10.53;;;6.17;;
13753;SDS011;6948;51.216;6.778;2023-04-27T00:32:20;10.70;;;5.70;;
13753;SDS011;6948;51.216;6.778;2023-04-27T00:34:46;12.07;;;6.23;;
13753;SDS011;6948;51.216;6.778;2023-04-27T00:37:12;9.93;;;5.60;;
13753;SDS011;6948;51.216;6.778;2023-04-27T00:39:38;10.33;;;5.90;;
13753;SDS011;6948;51.216;6.778;2023-04-27T00:42:03;10.40;;;5.90;;
13753;SDS011;6948;51.216;6.778;2023-04-27T00:44:29;7.70;;;5.23;;
13753;SDS011;6948;51.216;6.778;2023-04-27T00:46:55;7.03;;;5.20;;
13753;SDS011;6948;51.216;6.778;2023-04-27T00:49:22;8.40;;;5.13;;
13753;SDS011;6948;51.216;6.778;2023-04-27T00:51:50;7.97;;;5.10;;
13753;SDS011;6948;51.216;6.778;2023-04-27T00:54:17;10.30;;;5.00;;
13753;SDS011;6948;51.216;6.778;2023-04-27T00:56:47;9.23;;;5.00;;
13753;SDS011;6948;51.216;6.778;2023-04-27T00:59:14;7.17;;;5.10;;
13753;SDS011;6948;51.216;6.778;2023-04-27T01:01:40;9.37;;;5.33;;
13753;SDS011;6948;51.216;6.778;2023-04-27T01:04:05;9.30;;;5.47;;
13753;SDS011;6948;51.216;6.778;2023-04-27T01:06:31;7.97;;;4.90;;
13753;SDS011;6948;51.216;6.778;2023-04-27T01:08:57;9.67;;;5.17;;
13753;SDS011;6948;51.216;6.778;2023-04-27T01:11:23;7.80;;;4.97;;
13753;SDS011;6948;51.216;6.778;2023-04-27T01:13:48;8.80;;;5.37;;
13753;SDS011;6948;51.216;6.778;2023-04-27T01:16:16;10.73;;;5.37;;
13753;SDS011;6948;51.216;6.778;2023-04-27T01:18:42;7.07;;;5.47;;
13753;SDS011;6948;51.216;6.778;2023-04-27T01:21:08;9.53;;;5.40;;
13753;SDS011;6948;51.216;6.778;2023-04-27T01:23:34;7.03;;;5.10;;
13753;SDS011;6948;51.216;6.778;2023-04-27T01:26:00;8.17;;;5.27;;
13753;SDS011;6948;51.216;6.778;2023-04-27T01:28:25;7.67;;;5.33;;
13753;SDS011;6948;51.216;6.778;2023-04-27T01:30:51;6.80;;;5.23;;
13753;SDS011;6948;51.216;6.778;2023-04-27T01:33:17;8.33;;;4.83;;
13753;SDS011;6948;51.216;6.778;2023-04-27T01:35:42;7.90;;;5.07;;
13753;SDS011;6948;51.216;6.778;2023-04-27T01:38:08;6.30;;;4.90;;
13753;SDS011;6948;51.216;6.778;2023-04-27T01:40:34;9.00;;;5.00;;
13753;SDS011;6948;51.216;6.778;2023-04-27T01:42:59;7.10;;;4.90;;
13753;SDS011;6948;51.216;6.778;2023-04-27T01:45:25;11.20;;;4.80;;
13753;SDS011;6948;51.216;6.778;2023-04-27T01:47:51;7.07;;;4.77;;
13753;SDS011;6948;51.216;6.778;2023-04-27T01:50:17;9.80;;;4.83;;
13753;SDS011;6948;51.216;6.778;2023-04-27T01:52:43;6.73;;;4.60;;
13753;SDS011;6948;51.216;6.778;2023-04-27T01:55:08;8.03;;;5.03;;
13753;SDS011;6948;51.216;6.778;2023-04-27T01:57:35;10.37;;;5.37;;
13753;SDS011;6948;51.216;6.778;2023-04-27T02:00:00;7.47;;;4.70;;
13753;SDS011;6948;51.216;6.778;2023-04-27T02:02:26;7.63;;;5.03;;
13753;SDS011;6948;51.216;6.778;2023-04-27T02:04:52;8.03;;;5.20;;
13753;SDS011;6948;51.216;6.778;2023-04-27T02:07:17;8.27;;;4.90;;
13753;SDS011;6948;51.216;6.778;2023-04-27T02:09:43;8.43;;;4.90;;
13753;SDS011;6948;51.216;6.778;2023-04-27T02:12:08;10.67;;;5.33;;
13753;SDS011;6948;51.216;6.778;2023-04-27T02:14:34;8.37;;;4.93;;
13753;SDS011;6948;51.216;6.778;2023-04-27T02:17:00;10.20;;;5.57;;
13753;SDS011;6948;51.216;6.778;2023-04-27T02:19:26;10.07;;;5.27;;
13753;SDS011;6948;51.216;6.778;2023-04-27T02:21:51;10.33;;;5.10;;
13753;SDS011;6948;51.216;6.778;2023-04-27T02:24:17;9.20;;;5.43;;
13753;SDS011;6948;51.216;6.778;2023-04-27T02:26:43;8.13;;;5.70;;
13753;SDS011;6948;51.216;6.778;2023-04-27T02:29:08;10.33;;;5.60;;
13753;SDS011;6948;51.216;6.778;2023-04-27T02:31:34;8.97;;;6.03;;
13753;SDS011;6948;51.216;6.778;2023-04-27T02:33:59;7.00;;;5.57;;
13753;SDS011;6948;51.216;6.778;2023-04-27T02:36:25;9.43;;;5.60;;
13753;SDS011;6948;51.216;6.778;2023-04-27T02:38:51;11.50;;;5.83;;
13753;SDS011;6948;51.216;6.778;2023-04-27T02:41:17;8.30;;;5.70;;
13753;SDS011;6948;51.216;6.778;2023-04-27T02:43:43;9.77;;;6.13;;
13753;SDS011;6948;51.216;6.778;2023-04-27T02:46:08;10.40;;;5.90;;
13753;SDS011;6948;51.216;6.778;2023-04-27T02:48:34;9.07;;;5.53;;
13753;SDS011;6948;51.216;6.778;2023-04-27T02:51:03;9.17;;;5.70;;
13753;SDS011;6948;51.216;6.778;2023-04-27T02:53:29;8.03;;;6.23;;
13753;SDS011;6948;51.216;6.778;2023-04-27T02:55:55;9.27;;;6.47;;
13753;SDS011;6948;51.216;6.778;2023-04-27T02:58:22;11.27;;;6.40;;
13753;SDS011;6948;51.216;6.778;2023-04-27T03:00:52;11.57;;;6.67;;
13753;SDS011;6948;51.216;6.778;2023-04-27T03:03:20;8.23;;;6.40;;
13753;SDS011;6948;51.216;6.778;2023-04-27T03:05:46;8.80;;;6.43;;
13753;SDS011;6948;51.216;6.778;2023-04-27T03:08:12;9.17;;;6.93;;
13753;SDS011;6948;51.216;6.778;2023-04-27T03:10:37;12.50;;;7.00;;
13753;SDS011;6948;51.216;6.778;2023-04-27T03:13:03;10.13;;;6.70;;
13753;SDS011;6948;51.216;6.778;2023-04-27T03:15:28;8.83;;;7.07;;
13753;SDS011;6948;51.216;6.778;2023-04-27T03:17:54;11.37;;;7.33;;
13753;SDS011;6948;51.216;6.778;2023-04-27T03:20:20;10.00;;;7.53;;
13753;SDS011;6948;51.216;6.778;2023-04-27T03:22:46;9.93;;;7.40;;
13753;SDS011;6948;51.216;6.778;2023-04-27T03:25:11;10.20;;;7.23;;
13753;SDS011;6948;51.216;6.778;2023-04-27T03:27:37;9.63;;;6.70;;
13753;SDS011;6948;51.216;6.778;2023-04-27T03:30:03;11.27;;;7.43;;
13753;SDS011;6948;51.216;6.778;2023-04-27T03:32:29;13.87;;;8.33;;
13753;SDS011;6948;51.216;6.778;2023-04-27T03:34:55;14.00;;;8.30;;
13753;SDS011;6948;51.216;6.778;2023-04-27T03:37:20;10.77;;;7.70;;
13753;SDS011;6948;51.216;6.778;2023-04-27T03:39:46;10.90;;;8.23;;
13753;SDS011;6948;51.216;6.778;2023-04-27T03:42:11;10.73;;;8.30;;
13753;SDS011;6948;51.216;6.778;2023-04-27T03:44:37;14.00;;;8.67;;
13753;SDS011;6948;51.216;6.778;2023-04-27T03:47:03;11.77;;;8.37;;
13753;SDS011;6948;51.216;6.778;2023-04-27T03:49:34;12.67;;;8.37;;
13753;SDS011;6948;51.216;6.778;2023-04-27T03:52:00;11.37;;;7.80;;
13753;SDS011;6948;51.216;6.778;2023-04-27T03:54:25;12.00;;;8.37;;
13753;SDS011;6948;51.216;6.778;2023-04-27T03:56:51;12.23;;;8.53;;
13753;SDS011;6948;51.216;6.778;2023-04-27T03:59:17;12.03;;;8.67;;
13753;SDS011;6948;51.216;6.778;2023-04-27T04:01:42;12.90;;;8.70;;
13753;SDS011;6948;51.216;6.778;2023-04-27T04:04:08;14.27;;;8.70;;
13753;SDS011;6948;51.216;6.778;2023-04-27T04:06:33;14.50;;;8.73;;
13753;SDS011;6948;51.216;6.778;2023-04-27T04:09:00;12.40;;;8.73;;
13753;SDS011;6948;51.216;6.778;2023-04-27T04:11:26;15.60;;;9.07;;
13753;SDS011;6948;51.216;6.778;2023-04-27T04:13:51;13.57;;;9.20;;
13753;SDS011;6948;51.216;6.778;2023-04-27T04:16:17;14.47;;;9.17;;
13753;SDS011;6948;51.216;6.778;2023-04-27T04:18:42;14.40;;;9.00;;
13753;SDS011;6948;51.216;6.778;2023-04-27T04:21:08;11.97;;;8.73;;
13753;SDS011;6948;51.216;6.778;2023-04-27T04:23:35;13.87;;;9.13;;
13753;SDS011;6948;51.216;6.778;2023-04-27T04:26:02;12.87;;;8.70;;
13753;SDS011;6948;51.216;6.778;2023-04-27T04:28:27;11.47;;;8.97;;
13753;SDS011;6948;51.216;6.778;2023-04-27T04:30:53;11.60;;;9.13;;
13753;SDS011;6948;51.216;6.778;2023-04-27T04:33:19;12.87;;;8.90;;
13753;SDS011;6948;51.216;6.778;2023-04-27T04:35:45;13.77;;;9.17;;
13753;SDS011;6948;51.216;6.778;2023-04-27T04:38:11;16.00;;;8.93;;
13753;SDS011;6948;51.216;6.778;2023-04-27T04:40:37;13.30;;;8.47;;
13753;SDS011;6948;51.216;6.778;2023-04-27T04:43:03;13.10;;;8.73;;
13753;SDS011;6948;51.216;6.778;2023-04-27T04:45:29;14.27;;;8.87;;
13753;SDS011;6948;51.216;6.778;2023-04-27T04:47:55;14.37;;;8.60;;
13753;SDS011;6948;51.216;6.778;2023-04-27T04:50:21;13.57;;;8.97;;
13753;SDS011;6948;51.216;6.778;2023-04-27T04:52:47;14.80;;;8.87;;
13753;SDS011;6948;51.216;6.778;2023-04-27T04:55:13;11.73;;;9.07;;
13753;SDS011;6948;51.216;6.778;2023-04-27T04:57:39;11.00;;;9.13;;
13753;SDS011;6948;51.216;6.778;2023-04-27T05:00:06;14.57;;;9.13;;
13753;SDS011;6948;51.216;6.778;2023-04-27T05:02:36;13.53;;;9.13;;
13753;SDS011;6948;51.216;6.778;2023-04-27T05:05:02;12.93;;;9.40;;
13753;SDS011;6948;51.216;6.778;2023-04-27T05:07:28;11.83;;;8.93;;
13753;SDS011;6948;51.216;6.778;2023-04-27T05:09:54;13.37;;;8.63;;
13753;SDS011;6948;51.216;6.778;2023-04-27T05:12:19;14.90;;;9.13;;
13753;SDS011;6948;51.216;6.778;2023-04-27T05:14:45;11.53;;;9.23;;
13753;SDS011;6948;51.216;6.778;2023-04-27T05:17:11;12.87;;;8.80;;
13753;SDS011;6948;51.216;6.778;2023-04-27T05:19:37;12.67;;;9.13;;
13753;SDS011;6948;51.216;6.778;2023-04-27T05:22:02;12.23;;;8.70;;
13753;SDS011;6948;51.216;6.778;2023-04-27T05:24:28;13.60;;;8.50;;
13753;SDS011;6948;51.216;6.778;2023-04-27T05:26:54;13.63;;;8.67;;
13753;SDS011;6948;51.216;6.778;2023-04-27T05:29:20;12.50;;;9.10;;
13753;SDS011;6948;51.216;6.778;2023-04-27T05:31:46;13.70;;;8.60;;
13753;SDS011;6948;51.216;6.778;2023-04-27T05:34:11;15.63;;;9.33;;
13753;SDS011;6948;51.216;6.778;2023-04-27T05:36:37;12.60;;;8.53;;
13753;SDS011;6948;51.216;6.778;2023-04-27T05:39:03;11.50;;;8.57;;
13753;SDS011;6948;51.216;6.778;2023-04-27T05:41:29;16.03;;;8.80;;
13753;SDS011;6948;51.216;6.778;2023-04-27T05:43:55;16.87;;;9.00;;
13753;SDS011;6948;51.216;6.778;2023-04-27T05:46:20;13.10;;;8.97;;
13753;SDS011;6948;51.216;6.778;2023-04-27T05:48:46;12.30;;;8.90;;
13753;SDS011;6948;51.216;6.778;2023-04-27T05:51:12;11.13;;;9.03;;
13753;SDS011;6948;51.216;6.778;2023-04-27T05:53:37;12.50;;;9.37;;
13753;SDS011;6948;51.216;6.778;2023-04-27T05:56:03;13.77;;;8.97;;
13753;SDS011;6948;51.216;6.778;2023-04-27T05:58:30;16.00;;;8.70;;
13753;SDS011;6948;51.216;6.778;2023-04-27T06:00:57;11.30;;;9.27;;
13753;SDS011;6948;51.216;6.778;2023-04-27T06:03:23;18.30;;;8.87;;
13753;SDS011;6948;51.216;6.778;2023-04-27T06:05:52;12.17;;;8.40;;
13753;SDS011;6948;51.216;6.778;2023-04-27T06:08:19;12.80;;;8.93;;
13753;SDS011;6948;51.216;6.778;2023-04-27T06:10:44;15.00;;;8.87;;
13753;SDS011;6948;51.216;6.778;2023-04-27T06:13:10;10.67;;;8.70;;
13753;SDS011;6948;51.216;6.778;2023-04-27T06:15:35;11.97;;;8.80;;
13753;SDS011;6948;51.216;6.778;2023-04-27T06:18:01;16.17;;;8.97;;
13753;SDS011;6948;51.216;6.778;2023-04-27T06:20:27;12.80;;;9.13;;
13753;SDS011;6948;51.216;6.778;2023-04-27T06:22:52;12.70;;;8.73;;
13753;SDS011;6948;51.216;6.778;2023-04-27T06:25:18;13.30;;;9.00;;
13753;SDS011;6948;51.216;6.778;2023-04-27T06:27:43;20.43;;;9.30;;
13753;SDS011;6948;51.216;6.778;2023-04-27T06:30:09;16.37;;;9.07;;
13753;SDS011;6948;51.216;6.778;2023-04-27T06:32:35;14.63;;;9.53;;
13753;SDS011;6948;51.216;6.778;2023-04-27T06:35:01;13.73;;;9.20;;
13753;SDS011;6948;51.216;6.778;2023-04-27T06:37:27;12.23;;;9.30;;
13753;SDS011;6948;51.216;6.778;2023-04-27T06:39:53;13.40;;;9.13;;
13753;SDS011;6948;51.216;6.778;2023-04-27T06:42:18;15.77;;;9.50;;
13753;SDS011;6948;51.216;6.778;2023-04-27T06:44:44;13.90;;;8.83;;
13753;SDS011;6948;51.216;6.778;2023-04-27T06:47:09;12.67;;;9.57;;
13753;SDS011;6948;51.216;6.778;2023-04-27T06:49:35;16.67;;;9.67;;
13753;SDS011;6948;51.216;6.778;2023-04-27T06:52:01;13.40;;;9.17;;
13753;SDS011;6948;51.216;6.778;2023-04-27T06:54:27;13.87;;;8.77;;
13753;SDS011;6948;51.216;6.778;2023-04-27T06:56:53;14.77;;;8.60;;
13753;SDS011;6948;51.216;6.778;2023-04-27T06:59:18;13.07;;;8.90;;
13753;SDS011;6948;51.216;6.778;2023-04-27T07:01:44;14.33;;;9.10;;
13753;SDS011;6948;51.216;6.778;2023-04-27T07:04:10;13.13;;;8.47;;
13753;SDS011;6948;51.216;6.778;2023-04-27T07:06:36;11.97;;;8.33;;
13753;SDS011;6948;51.216;6.778;2023-04-27T07:09:02;13.57;;;9.17;;
13753;SDS011;6948;51.216;6.778;2023-04-27T07:11:30;15.13;;;8.50;;
13753;SDS011;6948;51.216;6.778;2023-04-27T07:13:55;13.40;;;8.47;;
13753;SDS011;6948;51.216;6.778;2023-04-27T07:16:21;11.20;;;7.93;;
13753;SDS011;6948;51.216;6.778;2023-04-27T07:18:47;11.97;;;8.13;;
13753;SDS011;6948;51.216;6.778;2023-04-27T07:21:12;9.47;;;7.30;;
13753;SDS011;6948;51.216;6.778;2023-04-27T07:23:38;12.07;;;7.27;;
13753;SDS011;6948;51.216;6.778;2023-04-27T07:26:06;10.33;;;6.47;;
13753;SDS011;6948;51.216;6.778;2023-04-27T07:28:32;7.87;;;6.40;;
13753;SDS011;6948;51.216;6.778;2023-04-27T07:31:03;9.87;;;6.27;;
13753;SDS011;6948;51.216;6.778;2023-04-27T07:33:30;8.63;;;6.43;;
13753;SDS011;6948;51.216;6.778;2023-04-27T07:35:56;10.10;;;6.60;;
13753;SDS011;6948;51.216;6.778;2023-04-27T07:38:22;9.17;;;6.93;;
13753;SDS011;6948;51.216;6.778;2023-04-27T07:40:49;7.77;;;6.00;;
13753;SDS011;6948;51.216;6.778;2023-04-27T07:43:15;9.33;;;6.20;;
13753;SDS011;6948;51.216;6.778;2023-04-27T07:45:41;8.93;;;6.60;;
13753;SDS011;6948;51.216;6.778;2023-04-27T07:48:08;10.83;;;6.83;;
13753;SDS011;6948;51.216;6.778;2023-04-27T07:50:34;10.13;;;6.90;;
13753;SDS011;6948;51.216;6.778;2023-04-27T07:53:00;10.53;;;6.80;;
13753;SDS011;6948;51.216;6.778;2023-04-27T07:55:25;12.13;;;7.10;;
13753;SDS011;6948;51.216;6.778;2023-04-27T07:57:52;10.83;;;6.93;;
13753;SDS011;6948;51.216;6.778;2023-04-27T08:00:18;13.03;;;7.37;;
13753;SDS011;6948;51.216;6.778;2023-04-27T08:02:44;11.97;;;7.00;;
13753;SDS011;6948;51.216;6.778;2023-04-27T08:05:10;12.53;;;7.33;;
13753;SDS011;6948;51.216;6.778;2023-04-27T08:07:36;11.50;;;6.80;;
13753;SDS011;6948;51.216;6.778;2023-04-27T08:10:01;9.30;;;6.77;;
13753;SDS011;6948;51.216;6.778;2023-04-27T08:12:27;10.10;;;6.57;;
13753;SDS011;6948;51.216;6.778;2023-04-27T08:14:53;8.40;;;6.50;;
13753;SDS011;6948;51.216;6.778;2023-04-27T08:17:19;8.67;;;6.67;;
13753;SDS011;6948;51.216;6.778;2023-04-27T08:19:46;8.27;;;6.67;;
13753;SDS011;6948;51.216;6.778;2023-04-27T08:22:12;10.67;;;7.10;;
13753;SDS011;6948;51.216;6.778;2023-04-27T08:24:37;13.53;;;7.17;;
13753;SDS011;6948;51.216;6.778;2023-04-27T08:27:04;11.13;;;7.43;;
13753;SDS011;6948;51.216;6.778;2023-04-27T08:29:30;11.80;;;7.00;;
13753;SDS011;6948;51.216;6.778;2023-04-27T08:31:58;9.93;;;7.77;;
13753;SDS011;6948;51.216;6.778;2023-04-27T08:34:25;9.67;;;7.37;;
13753;SDS011;6948;51.216;6.778;2023-04-27T08:36:51;8.63;;;7.73;;
13753;SDS011;6948;51.216;6.778;2023-04-27T08:39:18;10.00;;;7.07;;
13753;SDS011;6948;51.216;6.778;2023-04-27T08:41:44;13.30;;;7.60;;
13753;SDS011;6948;51.216;6.778;2023-04-27T08:44:10;14.70;;;7.23;;
13753;SDS011;6948;51.216;6.778;2023-04-27T08:46:36;10.67;;;7.97;;
13753;SDS011;6948;51.216;6.778;2023-04-27T08:49:02;11.30;;;7.60;;
13753;SDS011;6948;51.216;6.778;2023-04-27T08:51:28;11.20;;;7.53;;
13753;SDS011;6948;51.216;6.778;2023-04-27T08:53:56;10.73;;;8.27;;
13753;SDS011;6948;51.216;6.778;2023-04-27T08:56:23;10.70;;;7.40;;
13753;SDS011;6948;51.216;6.778;2023-04-27T08:58:50;10.97;;;6.90;;
13753;SDS011;6948;51.216;6.778;2023-04-27T09:01:16;8.67;;;6.00;;
13753;SDS011;6948;51.216;6.778;2023-04-27T09:03:43;9.03;;;5.73;;
13753;SDS011;6948;51.216;6.778;2023-04-27T09:06:11;8.67;;;5.90;;
13753;SDS011;6948;51.216;6.778;2023-04-27T09:08:46;8.40;;;5.80;;
13753;SDS011;6948;51.216;6.778;2023-04-27T09:11:13;6.57;;;5.00;;
13753;SDS011;6948;51.216;6.778;2023-04-27T09:13:40;6.57;;;5.13;;
13753;SDS011;6948;51.216;6.778;2023-04-27T09:16:11;9.40;;;6.10;;
13753;SDS011;6948;51.216;6.778;2023-04-27T09:18:40;9.80;;;5.60;;
13753;SDS011;6948;51.216;6.778;2023-04-27T09:21:07;6.37;;;5.27;;
13753;SDS011;6948;51.216;6.778;2023-04-27T09:23:34;9.93;;;6.07;;
13753;SDS011;6948;51.216;6.778;2023-04-27T09:26:02;8.10;;;5.97;;
13753;SDS011;6948;51.216;6.778;2023-04-27T09:28:32;9.17;;;5.33;;
13753;SDS011;6948;51.216;6.778;2023-04-27T09:30:59;10.37;;;6.50;;
13753;SDS011;6948;51.216;6.778;2023-04-27T09:36:04;9.17;;;6.10;;
13753;SDS011;6948;51.216;6.778;2023-04-27T09:38:30;8.77;;;6.20;;
13753;SDS011;6948;51.216;6.778;2023-04-27T09:40:57;9.50;;;5.93;;
13753;SDS011;6948;51.216;6.778;2023-04-27T09:43:24;7.87;;;5.50;;
13753;SDS011;6948;51.216;6.778;2023-04-27T09:45:51;8.53;;;5.50;;
13753;SDS011;6948;51.216;6.778;2023-04-27T09:48:18;8.13;;;5.73;;
13753;SDS011;6948;51.216;6.778;2023-04-27T09:50:46;9.83;;;6.10;;
13753;SDS011;6948;51.216;6.778;2023-04-27T09:53:15;12.87;;;8.13;;
13753;SDS011;6948;51.216;6.778;2023-04-27T09:55:56;9.40;;;6.67;;
13753;SDS011;6948;51.216;6.778;2023-04-27T10:07:00;8.57;;;6.47;;
13753;SDS011;6948;51.216;6.778;2023-04-27T10:09:36;9.63;;;6.43;;
13753;SDS011;6948;51.216;6.778;2023-04-27T10:12:24;8.67;;;6.57;;
13753;SDS011;6948;51.216;6.778;2023-04-27T10:15:17;9.80;;;6.97;;
13753;SDS011;6948;51.216;6.778;2023-04-27T10:17:51;8.33;;;6.33;;
13753;SDS011;6948;51.216;6.778;2023-04-27T10:20:35;7.73;;;6.90;;
13753;SDS011;6948;51.216;6.778;2023-04-27T10:23:01;9.27;;;7.07;;
13753;SDS011;6948;51.216;6.778;2023-04-27T10:25:28;9.30;;;6.23;;
13753;SDS011;6948;51.216;6.778;2023-04-27T10:28:01;8.73;;;6.23;;
13753;SDS011;6948;51.216;6.778;2023-04-27T10:30:32;8.80;;;6.63;;
13753;SDS011;6948;51.216;6.778;2023-04-27T10:33:03;11.47;;;7.37;;
13753;SDS011;6948;51.216;6.778;2023-04-27T10:35:34;11.00;;;7.27;;
13753;SDS011;6948;51.216;6.778;2023-04-27T10:38:09;9.97;;;7.20;;
13753;SDS011;6948;51.216;6.778;2023-04-27T10:40:42;10.60;;;7.50;;
13753;SDS011;6948;51.216;6.778;2023-04-27T10:43:09;10.57;;;6.60;;
13753;SDS011;6948;51.216;6.778;2023-04-27T10:45:37;9.23;;;6.80;;
13753;SDS011;6948;51.216;6.778;2023-04-27T10:48:03;10.77;;;6.87;;
13753;SDS011;6948;51.216;6.778;2023-04-27T10:50:29;9.13;;;6.60;;
13753;SDS011;6948;51.216;6.778;2023-04-27T10:53:03;9.83;;;6.63;;
13753;SDS011;6948;51.216;6.778;2023-04-27T10:55:31;11.63;;;6.93;;
13753;SDS011;6948;51.216;6.778;2023-04-27T10:57:57;9.43;;;6.63;;
13753;SDS011;6948;51.216;6.778;2023-04-27T11:00:25;11.53;;;7.57;;
13753;SDS011;6948;51.216;6.778;2023-04-27T11:05:48;16.23;;;10.73;;
13753;SDS011;6948;51.216;6.778;2023-04-27T11:08:22;9.90;;;7.70;;
13753;SDS011;6948;51.216;6.778;2023-04-27T11:10:50;9.73;;;6.10;;
13753;SDS011;6948;51.216;6.778;2023-04-27T11:13:17;12.97;;;6.90;;
13753;SDS011;6948;51.216;6.778;2023-04-27T11:15:45;7.10;;;5.77;;
13753;SDS011;6948;51.216;6.778;2023-04-27T11:18:14;9.30;;;5.83;;
13753;SDS011;6948;51.216;6.778;2023-04-27T11:20:42;8.37;;;6.30;;
13753;SDS011;6948;51.216;6.778;2023-04-27T11:23:09;8.93;;;6.73;;
13753;SDS011;6948;51.216;6.778;2023-04-27T11:25:35;7.10;;;6.40;;
13753;SDS011;6948;51.216;6.778;2023-04-27T11:28:02;8.73;;;6.47;;
13753;SDS011;6948;51.216;6.778;2023-04-27T11:30:28;11.07;;;6.37;;
13753;SDS011;6948;51.216;6.778;2023-04-27T11:32:54;9.07;;;6.50;;
13753;SDS011;6948;51.216;6.778;2023-04-27T11:35:30;9.57;;;6.77;;
13753;SDS011;6948;51.216;6.778;2023-04-27T11:37:57;8.00;;;6.77;;
13753;SDS011;6948;51.216;6.778;2023-04-27T11:40:23;10.90;;;6.90;;
13753;SDS011;6948;51.216;6.778;2023-04-27T11:42:55;7.60;;;6.70;;
13753;SDS011;6948;51.216;6.778;2023-04-27T11:45:23;10.00;;;6.40;;
13753;SDS011;6948;51.216;6.778;2023-04-27T11:47:51;10.73;;;6.97;;
13753;SDS011;6948;51.216;6.778;2023-04-27T11:50:17;11.57;;;6.57;;
13753;SDS011;6948;51.216;6.778;2023-04-27T11:52:46;8.80;;;6.80;;
13753;SDS011;6948;51.216;6.778;2023-04-27T11:55:13;8.23;;;6.00;;
13753;SDS011;6948;51.216;6.778;2023-04-27T11:57:40;7.07;;;6.10;;
13753;SDS011;6948;51.216;6.778;2023-04-27T12:00:07;6.83;;;6.13;;
13753;SDS011;6948;51.216;6.778;2023-04-27T12:02:35;9.83;;;6.80;;
13753;SDS011;6948;51.216;6.778;2023-04-27T12:05:01;9.97;;;7.23;;
13753;SDS011;6948;51.216;6.778;2023-04-27T12:07:28;11.47;;;6.87;;
13753;SDS011;6948;51.216;6.778;2023-04-27T12:09:54;10.77;;;7.03;;
13753;SDS011;6948;51.216;6.778;2023-04-27T12:12:20;10.53;;;6.70;;
13753;SDS011;6948;51.216;6.778;2023-04-27T12:14:47;8.57;;;6.63;;
13753;SDS011;6948;51.216;6.778;2023-04-27T12:17:13;11.27;;;7.93;;
13753;SDS011;6948;51.216;6.778;2023-04-27T12:19:39;10.57;;;7.33;;
13753;SDS011;6948;51.216;6.778;2023-04-27T12:22:05;14.27;;;10.83;;
13753;SDS011;6948;51.216;6.778;2023-04-27T12:24:30;11.17;;;8.00;;
13753;SDS011;6948;51.216;6.778;2023-04-27T12:26:56;10.57;;;7.10;;
13753;SDS011;6948;51.216;6.778;2023-04-27T12:29:23;10.43;;;7.13;;
13753;SDS011;6948;51.216;6.778;2023-04-27T12:31:49;11.47;;;7.30;;
13753;SDS011;6948;51.216;6.778;2023-04-27T12:34:15;9.37;;;7.13;;
13753;SDS011;6948;51.216;6.778;2023-04-27T12:36:42;9.60;;;7.00;;
13753;SDS011;6948;51.216;6.778;2023-04-27T12:39:12;12.37;;;7.53;;
13753;SDS011;6948;51.216;6.778;2023-04-27T12:41:42;8.87;;;6.80;;
13753;SDS011;6948;51.216;6.778;2023-04-27T12:44:08;10.40;;;6.80;;
13753;SDS011;6948;51.216;6.778;2023-04-27T12:46:35;10.93;;;7.23;;
13753;SDS011;6948;51.216;6.778;2023-04-27T12:49:00;9.50;;;7.60;;
13753;SDS011;6948;51.216;6.778;2023-04-27T12:51:26;11.77;;;7.57;;
13753;SDS011;6948;51.216;6.778;2023-04-27T12:53:52;9.97;;;7.00;;
13753;SDS011;6948;51.216;6.778;2023-04-27T12:56:18;9.50;;;7.23;;
13753;SDS011;6948;51.216;6.778;2023-04-27T12:58:45;10.03;;;6.87;;
13753;SDS011;6948;51.216;6.778;2023-04-27T13:01:11;10.87;;;7.50;;
13753;SDS011;6948;51.216;6.778;2023-04-27T13:03:40;10.93;;;7.50;;
13753;SDS011;6948;51.216;6.778;2023-04-27T13:06:07;10.77;;;7.63;;
13753;SDS011;6948;51.216;6.778;2023-04-27T13:08:33;10.03;;;7.33;;
13753;SDS011;6948;51.216;6.778;2023-04-27T13:11:00;11.13;;;6.83;;
13753;SDS011;6948;51.216;6.778;2023-04-27T13:13:26;7.97;;;7.13;;
13753;SDS011;6948;51.216;6.778;2023-04-27T13:15:51;11.33;;;7.10;;
13753;SDS011;6948;51.216;6.778;2023-04-27T13:18:17;8.67;;;7.30;;
13753;SDS011;6948;51.216;6.778;2023-04-27T13:20:43;10.70;;;6.63;;
13753;SDS011;6948;51.216;6.778;2023-04-27T13:23:09;8.00;;;7.00;;
13753;SDS011;6948;51.216;6.778;2023-04-27T13:25:35;8.00;;;6.47;;
13753;SDS011;6948;51.216;6.778;2023-04-27T13:28:00;9.10;;;6.90;;
13753;SDS011;6948;51.216;6.778;2023-04-27T13:30:26;9.10;;;6.80;;
13753;SDS011;6948;51.216;6.778;2023-04-27T13:32:52;8.10;;;6.50;;
13753;SDS011;6948;51.216;6.778;2023-04-27T13:35:18;10.10;;;6.90;;
13753;SDS011;6948;51.216;6.778;2023-04-27T13:37:44;13.27;;;8.10;;
13753;SDS011;6948;51.216;6.778;2023-04-27T13:40:10;10.43;;;7.50;;
13753;SDS011;6948;51.216;6.778;2023-04-27T13:42:37;10.90;;;6.90;;
13753;SDS011;6948;51.216;6.778;2023-04-27T13:45:03;8.03;;;6.40;;
13753;SDS011;6948;51.216;6.778;2023-04-27T13:47:30;10.43;;;7.07;;
13753;SDS011;6948;51.216;6.778;2023-04-27T13:50:05;8.47;;;6.20;;
13753;SDS011;6948;51.216;6.778;2023-04-27T13:52:32;9.40;;;6.67;;
13753;SDS011;6948;51.216;6.778;2023-04-27T13:54:58;11.53;;;6.60;;
13753;SDS011;6948;51.216;6.778;2023-04-27T13:57:24;11.07;;;7.00;;
13753;SDS011;6948;51.216;6.778;2023-04-27T13:59:50;10.13;;;6.53;;
13753;SDS011;6948;51.216;6.778;2023-04-27T14:02:15;10.43;;;7.10;;
13753;SDS011;6948;51.216;6.778;2023-04-27T14:04:41;10.73;;;7.43;;
13753;SDS011;6948;51.216;6.778;2023-04-27T14:07:07;8.93;;;7.33;;
13753;SDS011;6948;51.216;6.778;2023-04-27T14:09:33;10.20;;;7.27;;
13753;SDS011;6948;51.216;6.778;2023-04-27T14:11:59;11.17;;;8.00;;
13753;SDS011;6948;51.216;6.778;2023-04-27T14:14:24;10.40;;;7.50;;
13753;SDS011;6948;51.216;6.778;2023-04-27T14:16:51;14.03;;;7.57;;
13753;SDS011;6948;51.216;6.778;2023-04-27T14:19:17;11.33;;;7.50;;
13753;SDS011;6948;51.216;6.778;2023-04-27T14:21:45;10.43;;;7.37;;
13753;SDS011;6948;51.216;6.778;2023-04-27T14:24:13;10.67;;;7.10;;
13753;SDS011;6948;51.216;6.778;2023-04-27T14:26:39;8.57;;;7.03;;
13753;SDS011;6948;51.216;6.778;2023-04-27T14:29:08;9.57;;;6.83;;
13753;SDS011;6948;51.216;6.778;2023-04-27T14:31:34;8.73;;;6.27;;
13753;SDS011;6948;51.216;6.778;2023-04-27T14:34:00;8.10;;;5.93;;
13753;SDS011;6948;51.216;6.778;2023-04-27T14:36:25;8.93;;;6.30;;
13753;SDS011;6948;51.216;6.778;2023-04-27T14:38:51;8.67;;;6.90;;
13753;SDS011;6948;51.216;6.778;2023-04-27T14:41:17;10.50;;;8.40;;
13753;SDS011;6948;51.216;6.778;2023-04-27T14:43:42;10.43;;;7.47;;
13753;SDS011;6948;51.216;6.778;2023-04-27T14:46:10;10.10;;;6.63;;
13753;SDS011;6948;51.216;6.778;2023-04-27T14:48:35;9.40;;;6.53;;
13753;SDS011;6948;51.216;6.778;2023-04-27T14:51:01;7.93;;;6.47;;
13753;SDS011;6948;51.216;6.778;2023-04-27T14:53:27;11.80;;;6.73;;
13753;SDS011;6948;51.216;6.778;2023-04-27T14:55:52;9.77;;;6.53;;
13753;SDS011;6948;51.216;6.778;2023-04-27T14:58:18;9.33;;;6.47;;
13753;SDS011;6948;51.216;6.778;2023-04-27T15:00:44;8.73;;;6.43;;
13753;SDS011;6948;51.216;6.778;2023-04-27T15:03:09;10.60;;;6.63;;